Flight Track Log - Related Links

Times and Time Zones

All times are in EDT time to prevent confusion due to time zone crossing. See the KLM765 flight status page for this flight to view local times or setup timezone preferences in your user account.


Time Position Orientation Groundspeed Altitude Reporting Facility
EDT Latitude Longitude Course Direction KTS MPH feet Rate Location/Type
Thu 05:57:00 PM 12.4026 -69.5436 102° East  Level Estimated
Thu 05:58:00 PM 12.3955 -69.5099 102° East  Level Estimated
Thu 05:59:00 PM 12.3884 -69.4763 102° East  Level Estimated
Thu 06:00:00 PM 12.3813 -69.4426 102° East  Level Estimated
Thu 06:01:00 PM 12.3742 -69.4089 102° East  Level Estimated
Thu 06:02:00 PM 12.3627 -69.3542 102° East  Level Estimated
Thu 06:03:00 PM 12.3511 -69.2995 102° East  Level Estimated
Thu 06:04:00 PM 12.3395 -69.2449 102° East  Level Estimated
Thu 06:05:00 PM 12.3280 -69.1902 102° East  Level Estimated
Thu 06:06:00 PM 12.3164 -69.1355 102° East  Level Estimated
Thu 06:07:00 PM 12.3048 -69.0808 102° East  Level Estimated
Thu 06:08:00 PM 12.2932 -69.0261 102° East  Level Estimated
Thu 06:09:00 PM 12.2815 -68.9714 102° East  Level Estimated
Thu 06:10:00 PM 12.2699 -68.9168 102° East  Level Estimated
Thu 06:11:00 PM 12.2583 -68.8621 102° East  Level Estimated
Thu 06:12:00 PM 12.2466 -68.8074 102° East  Level Estimated
Thu 06:13:00 PM 12.2349 -68.7528 102° East  Level Estimated
Thu 06:14:00 PM 12.2233 -68.6982 102° East  Level Estimated
Thu 06:15:00 PM 12.2116 -68.6435 102° East  Level Estimated
Thu 06:16:00 PM 12.1999 -68.5889 102° East  Level Estimated
Thu 06:17:00 PM 12.1882 -68.5342 102° East  Level Estimated
Thu 06:18:00 PM 12.1764 -68.4796 102° East  Level Estimated
Thu 06:19:00 PM 12.1647 -68.4250 102° East  Level Estimated
Thu 06:20:00 PM 12.1530 -68.3704 102° East  Level Estimated
Thu 06:21:00 PM 12.1412 -68.3158 102° East  Level Estimated
Thu 06:22:00 PM 12.1310 -68.2685 102° East  Level Estimated
Thu 06:23:00 PM 12.1310 -68.2685 346° North  Level Estimated
Thu 06:24:00 PM 12.1310 -68.2685 346° North  Level Estimated
Thu 06:25:00 PM 12.1310 -68.2685 346° North  Level Estimated
Thu 06:26:00 PM 12.1310 -68.2685 346° North  Level Estimated
Thu 06:27:00 PM 12.1310 -68.2685 346° North  Level Estimated
Thu 06:28:00 PM 12.1310 -68.2685 346° North  Level Estimated
Thu 06:29:00 PM 12.1310 -68.2685 346° North  Level Estimated
Thu 06:30:00 PM 12.1310 -68.2685 346° North  Level Estimated
Thu 06:31:00 PM 12.1310 -68.2685 346° North  Level Estimated

Login

Don't have an account? Register now (free) for customized features, flight alerts, and more!